sensor_id;sensor_type;location;lat;lon;timestamp;P1;durP1;ratioP1;P2;durP2;ratioP2
63112;SDS011;49206;48.020;21.378;2023-12-20T00:01:03;45.47;;;15.75;;
63112;SDS011;49206;48.020;21.378;2023-12-20T00:02:06;48.33;;;15.07;;
63112;SDS011;49206;48.020;21.378;2023-12-20T00:03:29;53.90;;;15.65;;
63112;SDS011;49206;48.020;21.378;2023-12-20T00:04:43;58.30;;;16.77;;
63112;SDS011;49206;48.020;21.378;2023-12-20T00:05:53;51.10;;;15.80;;
63112;SDS011;49206;48.020;21.378;2023-12-20T00:06:56;45.42;;;15.30;;
63112;SDS011;49206;48.020;21.378;2023-12-20T00:08:06;58.78;;;15.65;;
63112;SDS011;49206;48.020;21.378;2023-12-20T00:09:15;53.70;;;16.40;;
63112;SDS011;49206;48.020;21.378;2023-12-20T00:10:18;52.25;;;16.90;;
63112;SDS011;49206;48.020;21.378;2023-12-20T00:11:25;47.05;;;16.50;;
63112;SDS011;49206;48.020;21.378;2023-12-20T00:12:38;104.93;;;19.35;;
63112;SDS011;49206;48.020;21.378;2023-12-20T00:13:57;77.05;;;16.05;;
63112;SDS011;49206;48.020;21.378;2023-12-20T00:15:02;49.17;;;15.23;;
63112;SDS011;49206;48.020;21.378;2023-12-20T00:16:24;79.97;;;16.65;;
63112;SDS011;49206;48.020;21.378;2023-12-20T00:17:34;52.13;;;16.33;;
63112;SDS011;49206;48.020;21.378;2023-12-20T00:18:37;95.65;;;17.58;;
63112;SDS011;49206;48.020;21.378;2023-12-20T00:19:40;88.57;;;16.88;;
63112;SDS011;49206;48.020;21.378;2023-12-20T00:20:44;63.83;;;17.88;;
63112;SDS011;49206;48.020;21.378;2023-12-20T00:21:46;52.00;;;17.05;;
63112;SDS011;49206;48.020;21.378;2023-12-20T00:22:49;66.70;;;17.85;;
63112;SDS011;49206;48.020;21.378;2023-12-20T00:23:59;63.17;;;16.40;;
63112;SDS011;49206;48.020;21.378;2023-12-20T00:25:04;67.57;;;16.05;;
63112;SDS011;49206;48.020;21.378;2023-12-20T00:26:07;70.43;;;16.95;;
63112;SDS011;49206;48.020;21.378;2023-12-20T00:27:10;55.63;;;18.60;;
63112;SDS011;49206;48.020;21.378;2023-12-20T00:28:13;61.28;;;16.48;;
63112;SDS011;49206;48.020;21.378;2023-12-20T00:29:15;55.95;;;16.85;;
63112;SDS011;49206;48.020;21.378;2023-12-20T00:30:18;71.03;;;19.08;;
63112;SDS011;49206;48.020;21.378;2023-12-20T00:31:21;61.28;;;17.90;;
63112;SDS011;49206;48.020;21.378;2023-12-20T00:32:24;69.68;;;17.48;;
63112;SDS011;49206;48.020;21.378;2023-12-20T00:33:26;55.72;;;13.25;;
63112;SDS011;49206;48.020;21.378;2023-12-20T00:34:29;61.13;;;17.27;;
63112;SDS011;49206;48.020;21.378;2023-12-20T00:35:32;66.50;;;16.20;;
63112;SDS011;49206;48.020;21.378;2023-12-20T00:36:35;70.05;;;16.35;;
63112;SDS011;49206;48.020;21.378;2023-12-20T00:37:41;48.30;;;17.75;;
63112;SDS011;49206;48.020;21.378;2023-12-20T00:38:47;58.42;;;15.82;;
63112;SDS011;49206;48.020;21.378;2023-12-20T00:39:50;67.72;;;16.25;;
63112;SDS011;49206;48.020;21.378;2023-12-20T00:40:53;50.50;;;16.08;;
63112;SDS011;49206;48.020;21.378;2023-12-20T00:41:56;46.72;;;16.70;;
63112;SDS011;49206;48.020;21.378;2023-12-20T00:42:59;62.28;;;15.05;;
63112;SDS011;49206;48.020;21.378;2023-12-20T00:44:01;46.90;;;15.05;;
63112;SDS011;49206;48.020;21.378;2023-12-20T00:45:05;62.67;;;15.02;;
63112;SDS011;49206;48.020;21.378;2023-12-20T00:46:08;61.80;;;17.02;;
63112;SDS011;49206;48.020;21.378;2023-12-20T00:47:11;50.10;;;15.77;;
63112;SDS011;49206;48.020;21.378;2023-12-20T00:48:13;42.95;;;15.40;;
63112;SDS011;49206;48.020;21.378;2023-12-20T00:49:16;49.55;;;16.23;;
63112;SDS011;49206;48.020;21.378;2023-12-20T00:50:19;51.70;;;17.48;;
63112;SDS011;49206;48.020;21.378;2023-12-20T00:51:26;51.78;;;17.70;;
63112;SDS011;49206;48.020;21.378;2023-12-20T00:52:29;55.88;;;19.38;;
63112;SDS011;49206;48.020;21.378;2023-12-20T00:53:32;59.53;;;19.50;;
63112;SDS011;49206;48.020;21.378;2023-12-20T00:54:34;64.85;;;18.67;;
63112;SDS011;49206;48.020;21.378;2023-12-20T00:55:37;58.60;;;19.10;;
63112;SDS011;49206;48.020;21.378;2023-12-20T00:56:40;60.80;;;19.20;;
63112;SDS011;49206;48.020;21.378;2023-12-20T00:57:43;67.95;;;19.05;;
63112;SDS011;49206;48.020;21.378;2023-12-20T00:58:46;88.78;;;18.90;;
63112;SDS011;49206;48.020;21.378;2023-12-20T00:59:48;69.20;;;19.65;;
63112;SDS011;49206;48.020;21.378;2023-12-20T01:00:51;60.05;;;19.02;;
63112;SDS011;49206;48.020;21.378;2023-12-20T01:01:54;77.68;;;19.05;;
63112;SDS011;49206;48.020;21.378;2023-12-20T01:02:56;95.30;;;19.73;;
63112;SDS011;49206;48.020;21.378;2023-12-20T01:04:00;141.48;;;22.27;;
63112;SDS011;49206;48.020;21.378;2023-12-20T01:05:03;69.20;;;19.23;;
63112;SDS011;49206;48.020;21.378;2023-12-20T01:06:06;80.53;;;18.20;;
63112;SDS011;49206;48.020;21.378;2023-12-20T01:07:08;63.58;;;17.80;;
63112;SDS011;49206;48.020;21.378;2023-12-20T01:08:11;51.78;;;19.10;;
63112;SDS011;49206;48.020;21.378;2023-12-20T01:09:14;56.80;;;20.83;;
63112;SDS011;49206;48.020;21.378;2023-12-20T01:10:17;60.83;;;18.15;;
63112;SDS011;49206;48.020;21.378;2023-12-20T01:11:19;70.78;;;18.70;;
63112;SDS011;49206;48.020;21.378;2023-12-20T01:12:29;89.65;;;18.48;;
63112;SDS011;49206;48.020;21.378;2023-12-20T01:13:33;87.60;;;19.65;;
63112;SDS011;49206;48.020;21.378;2023-12-20T01:14:36;66.93;;;18.88;;
63112;SDS011;49206;48.020;21.378;2023-12-20T01:15:38;98.40;;;20.08;;
63112;SDS011;49206;48.020;21.378;2023-12-20T01:16:41;65.07;;;18.80;;
63112;SDS011;49206;48.020;21.378;2023-12-20T01:17:43;68.05;;;18.40;;
63112;SDS011;49206;48.020;21.378;2023-12-20T01:18:46;53.40;;;18.10;;
63112;SDS011;49206;48.020;21.378;2023-12-20T01:19:55;78.40;;;18.33;;
63112;SDS011;49206;48.020;21.378;2023-12-20T01:21:01;86.90;;;19.65;;
63112;SDS011;49206;48.020;21.378;2023-12-20T01:22:12;71.43;;;17.58;;
63112;SDS011;49206;48.020;21.378;2023-12-20T01:23:16;53.55;;;17.67;;
63112;SDS011;49206;48.020;21.378;2023-12-20T01:24:26;81.07;;;18.85;;
63112;SDS011;49206;48.020;21.378;2023-12-20T01:25:28;105.82;;;19.52;;
63112;SDS011;49206;48.020;21.378;2023-12-20T01:26:32;77.88;;;19.50;;
63112;SDS011;49206;48.020;21.378;2023-12-20T01:27:34;82.78;;;19.17;;
63112;SDS011;49206;48.020;21.378;2023-12-20T01:28:43;78.30;;;18.67;;
63112;SDS011;49206;48.020;21.378;2023-12-20T01:29:47;84.55;;;17.30;;
63112;SDS011;49206;48.020;21.378;2023-12-20T01:30:53;84.07;;;18.25;;
63112;SDS011;49206;48.020;21.378;2023-12-20T01:32:00;76.45;;;17.48;;
63112;SDS011;49206;48.020;21.378;2023-12-20T01:33:04;83.90;;;18.05;;
63112;SDS011;49206;48.020;21.378;2023-12-20T01:34:14;58.70;;;18.88;;
63112;SDS011;49206;48.020;21.378;2023-12-20T01:35:20;56.28;;;17.73;;
63112;SDS011;49206;48.020;21.378;2023-12-20T01:36:23;65.25;;;19.60;;
63112;SDS011;49206;48.020;21.378;2023-12-20T01:37:25;103.03;;;19.67;;
63112;SDS011;49206;48.020;21.378;2023-12-20T01:38:28;60.85;;;18.85;;
63112;SDS011;49206;48.020;21.378;2023-12-20T01:39:37;110.85;;;20.80;;
63112;SDS011;49206;48.020;21.378;2023-12-20T01:40:41;119.88;;;21.95;;
63112;SDS011;49206;48.020;21.378;2023-12-20T01:41:52;104.68;;;20.25;;
63112;SDS011;49206;48.020;21.378;2023-12-20T01:43:09;125.97;;;22.40;;
63112;SDS011;49206;48.020;21.378;2023-12-20T01:44:16;56.10;;;18.45;;
63112;SDS011;49206;48.020;21.378;2023-12-20T01:45:22;64.20;;;19.75;;
63112;SDS011;49206;48.020;21.378;2023-12-20T01:46:24;78.85;;;19.35;;
63112;SDS011;49206;48.020;21.378;2023-12-20T01:47:32;83.05;;;17.83;;
63112;SDS011;49206;48.020;21.378;2023-12-20T01:48:42;52.30;;;17.52;;
63112;SDS011;49206;48.020;21.378;2023-12-20T01:49:55;60.15;;;16.58;;
63112;SDS011;49206;48.020;21.378;2023-12-20T01:51:04;95.68;;;18.35;;
63112;SDS011;49206;48.020;21.378;2023-12-20T01:52:12;120.90;;;20.08;;
63112;SDS011;49206;48.020;21.378;2023-12-20T01:53:14;127.30;;;20.48;;
63112;SDS011;49206;48.020;21.378;2023-12-20T01:54:27;57.83;;;17.70;;
63112;SDS011;49206;48.020;21.378;2023-12-20T01:55:31;96.78;;;19.73;;
63112;SDS011;49206;48.020;21.378;2023-12-20T01:56:47;56.47;;;18.35;;
63112;SDS011;49206;48.020;21.378;2023-12-20T01:57:53;69.78;;;18.00;;
63112;SDS011;49206;48.020;21.378;2023-12-20T01:59:05;109.80;;;20.42;;
63112;SDS011;49206;48.020;21.378;2023-12-20T02:00:11;88.80;;;20.73;;
63112;SDS011;49206;48.020;21.378;2023-12-20T02:01:17;70.90;;;18.33;;
63112;SDS011;49206;48.020;21.378;2023-12-20T02:02:21;119.07;;;20.25;;
63112;SDS011;49206;48.020;21.378;2023-12-20T02:03:24;77.32;;;17.70;;
63112;SDS011;49206;48.020;21.378;2023-12-20T02:04:31;75.93;;;18.95;;
63112;SDS011;49206;48.020;21.378;2023-12-20T02:05:40;90.53;;;18.23;;
63112;SDS011;49206;48.020;21.378;2023-12-20T02:06:46;94.65;;;18.08;;
63112;SDS011;49206;48.020;21.378;2023-12-20T02:08:01;105.95;;;16.70;;
63112;SDS011;49206;48.020;21.378;2023-12-20T02:09:04;57.72;;;16.75;;
63112;SDS011;49206;48.020;21.378;2023-12-20T02:10:17;56.55;;;18.13;;
63112;SDS011;49206;48.020;21.378;2023-12-20T02:11:22;53.95;;;18.17;;
63112;SDS011;49206;48.020;21.378;2023-12-20T02:12:28;97.32;;;17.83;;
63112;SDS011;49206;48.020;21.378;2023-12-20T02:13:39;107.70;;;19.65;;
63112;SDS011;49206;48.020;21.378;2023-12-20T02:14:57;84.07;;;16.13;;
63112;SDS011;49206;48.020;21.378;2023-12-20T02:16:00;86.95;;;18.52;;
63112;SDS011;49206;48.020;21.378;2023-12-20T02:17:02;74.53;;;17.58;;
63112;SDS011;49206;48.020;21.378;2023-12-20T02:18:14;78.03;;;17.55;;
63112;SDS011;49206;48.020;21.378;2023-12-20T02:19:19;84.32;;;17.70;;
63112;SDS011;49206;48.020;21.378;2023-12-20T02:20:22;54.70;;;18.55;;
63112;SDS011;49206;48.020;21.378;2023-12-20T02:21:25;61.30;;;17.40;;
63112;SDS011;49206;48.020;21.378;2023-12-20T02:22:28;59.47;;;16.17;;
63112;SDS011;49206;48.020;21.378;2023-12-20T02:23:32;93.32;;;19.55;;
63112;SDS011;49206;48.020;21.378;2023-12-20T02:24:38;112.65;;;21.13;;
63112;SDS011;49206;48.020;21.378;2023-12-20T02:25:48;89.07;;;19.10;;
63112;SDS011;49206;48.020;21.378;2023-12-20T02:26:51;68.63;;;17.88;;
63112;SDS011;49206;48.020;21.378;2023-12-20T02:27:53;101.15;;;19.65;;
63112;SDS011;49206;48.020;21.378;2023-12-20T02:28:59;51.33;;;16.48;;
63112;SDS011;49206;48.020;21.378;2023-12-20T02:30:10;75.55;;;18.48;;
63112;SDS011;49206;48.020;21.378;2023-12-20T02:31:15;91.78;;;18.77;;
63112;SDS011;49206;48.020;21.378;2023-12-20T02:32:18;68.00;;;17.00;;
63112;SDS011;49206;48.020;21.378;2023-12-20T02:33:21;56.55;;;16.52;;
63112;SDS011;49206;48.020;21.378;2023-12-20T02:34:31;66.15;;;15.82;;
63112;SDS011;49206;48.020;21.378;2023-12-20T02:35:34;69.82;;;15.05;;
63112;SDS011;49206;48.020;21.378;2023-12-20T02:36:44;66.93;;;15.25;;
63112;SDS011;49206;48.020;21.378;2023-12-20T02:37:47;110.90;;;19.23;;
63112;SDS011;49206;48.020;21.378;2023-12-20T02:38:50;92.05;;;17.83;;
63112;SDS011;49206;48.020;21.378;2023-12-20T02:39:52;49.85;;;17.48;;
63112;SDS011;49206;48.020;21.378;2023-12-20T02:40:55;94.57;;;20.48;;
63112;SDS011;49206;48.020;21.378;2023-12-20T02:41:58;87.22;;;17.35;;
63112;SDS011;49206;48.020;21.378;2023-12-20T02:43:04;70.45;;;18.23;;
63112;SDS011;49206;48.020;21.378;2023-12-20T02:44:08;114.93;;;20.17;;
63112;SDS011;49206;48.020;21.378;2023-12-20T02:45:11;100.70;;;19.63;;
63112;SDS011;49206;48.020;21.378;2023-12-20T02:46:15;82.72;;;18.52;;
63112;SDS011;49206;48.020;21.378;2023-12-20T02:48:22;78.80;;;15.38;;
63112;SDS011;49206;48.020;21.378;2023-12-20T02:49:28;66.50;;;17.85;;
63112;SDS011;49206;48.020;21.378;2023-12-20T02:50:32;70.45;;;16.67;;
63112;SDS011;49206;48.020;21.378;2023-12-20T02:51:34;77.13;;;17.58;;
63112;SDS011;49206;48.020;21.378;2023-12-20T02:52:50;80.68;;;17.88;;
63112;SDS011;49206;48.020;21.378;2023-12-20T02:53:57;62.33;;;17.80;;
63112;SDS011;49206;48.020;21.378;2023-12-20T02:55:02;53.05;;;16.92;;
63112;SDS011;49206;48.020;21.378;2023-12-20T02:56:07;69.75;;;19.42;;
63112;SDS011;49206;48.020;21.378;2023-12-20T02:57:12;70.57;;;20.55;;
63112;SDS011;49206;48.020;21.378;2023-12-20T02:58:21;69.85;;;21.48;;
63112;SDS011;49206;48.020;21.378;2023-12-20T02:59:28;66.78;;;20.27;;
63112;SDS011;49206;48.020;21.378;2023-12-20T03:00:30;64.97;;;22.17;;
63112;SDS011;49206;48.020;21.378;2023-12-20T03:01:33;77.78;;;21.50;;
63112;SDS011;49206;48.020;21.378;2023-12-20T03:02:39;94.75;;;22.05;;
63112;SDS011;49206;48.020;21.378;2023-12-20T03:03:44;72.20;;;22.42;;
63112;SDS011;49206;48.020;21.378;2023-12-20T03:04:49;105.90;;;25.75;;
63112;SDS011;49206;48.020;21.378;2023-12-20T03:05:51;107.35;;;22.08;;
63112;SDS011;49206;48.020;21.378;2023-12-20T03:06:54;111.85;;;24.40;;
63112;SDS011;49206;48.020;21.378;2023-12-20T03:07:57;82.50;;;20.33;;
63112;SDS011;49206;48.020;21.378;2023-12-20T03:08:59;78.10;;;21.50;;
63112;SDS011;49206;48.020;21.378;2023-12-20T03:10:02;67.10;;;24.55;;
63112;SDS011;49206;48.020;21.378;2023-12-20T03:11:21;62.65;;;21.25;;
63112;SDS011;49206;48.020;21.378;2023-12-20T03:12:23;63.92;;;21.52;;
63112;SDS011;49206;48.020;21.378;2023-12-20T03:13:26;75.03;;;22.67;;
63112;SDS011;49206;48.020;21.378;2023-12-20T03:14:29;96.55;;;23.00;;
63112;SDS011;49206;48.020;21.378;2023-12-20T03:15:33;69.68;;;21.80;;
63112;SDS011;49206;48.020;21.378;2023-12-20T03:16:35;121.15;;;23.02;;
63112;SDS011;49206;48.020;21.378;2023-12-20T03:17:38;83.22;;;24.63;;
63112;SDS011;49206;48.020;21.378;2023-12-20T03:18:41;72.03;;;21.88;;
63112;SDS011;49206;48.020;21.378;2023-12-20T03:19:44;94.78;;;23.75;;
63112;SDS011;49206;48.020;21.378;2023-12-20T03:20:50;76.82;;;21.90;;
63112;SDS011;49206;48.020;21.378;2023-12-20T03:21:54;94.03;;;20.52;;
63112;SDS011;49206;48.020;21.378;2023-12-20T03:23:00;107.95;;;24.45;;
63112;SDS011;49206;48.020;21.378;2023-12-20T03:24:03;68.55;;;22.45;;
63112;SDS011;49206;48.020;21.378;2023-12-20T03:25:05;68.95;;;21.45;;
63112;SDS011;49206;48.020;21.378;2023-12-20T03:26:08;119.25;;;22.85;;
63112;SDS011;49206;48.020;21.378;2023-12-20T03:27:11;110.45;;;21.70;;
63112;SDS011;49206;48.020;21.378;2023-12-20T03:28:16;86.13;;;23.05;;
63112;SDS011;49206;48.020;21.378;2023-12-20T03:29:19;65.82;;;20.85;;
63112;SDS011;49206;48.020;21.378;2023-12-20T03:30:22;89.53;;;24.45;;
63112;SDS011;49206;48.020;21.378;2023-12-20T03:31:25;92.63;;;24.85;;
63112;SDS011;49206;48.020;21.378;2023-12-20T03:32:27;102.93;;;23.30;;
63112;SDS011;49206;48.020;21.378;2023-12-20T03:33:30;113.78;;;22.50;;
63112;SDS011;49206;48.020;21.378;2023-12-20T03:34:33;124.43;;;25.17;;
63112;SDS011;49206;48.020;21.378;2023-12-20T03:35:36;84.43;;;22.88;;
63112;SDS011;49206;48.020;21.378;2023-12-20T03:36:39;95.03;;;21.27;;
63112;SDS011;49206;48.020;21.378;2023-12-20T03:37:52;128.85;;;24.98;;
63112;SDS011;49206;48.020;21.378;2023-12-20T03:38:54;79.20;;;22.55;;
63112;SDS011;49206;48.020;21.378;2023-12-20T03:39:57;92.97;;;25.42;;
63112;SDS011;49206;48.020;21.378;2023-12-20T03:40:59;106.55;;;25.42;;
63112;SDS011;49206;48.020;21.378;2023-12-20T03:42:02;96.47;;;24.25;;
63112;SDS011;49206;48.020;21.378;2023-12-20T03:43:12;76.05;;;23.52;;
63112;SDS011;49206;48.020;21.378;2023-12-20T03:44:14;111.15;;;25.73;;
63112;SDS011;49206;48.020;21.378;2023-12-20T03:45:18;97.72;;;26.15;;
63112;SDS011;49206;48.020;21.378;2023-12-20T03:46:21;84.05;;;23.80;;
63112;SDS011;49206;48.020;21.378;2023-12-20T03:47:26;101.60;;;24.35;;
63112;SDS011;49206;48.020;21.378;2023-12-20T03:48:39;89.22;;;24.88;;
63112;SDS011;49206;48.020;21.378;2023-12-20T03:49:44;68.47;;;24.65;;
63112;SDS011;49206;48.020;21.378;2023-12-20T03:50:53;68.22;;;22.30;;
63112;SDS011;49206;48.020;21.378;2023-12-20T03:51:55;112.32;;;23.85;;
63112;SDS011;49206;48.020;21.378;2023-12-20T03:52:58;95.22;;;26.10;;
63112;SDS011;49206;48.020;21.378;2023-12-20T03:54:01;101.55;;;24.55;;
63112;SDS011;49206;48.020;21.378;2023-12-20T03:55:03;104.72;;;26.98;;
63112;SDS011;49206;48.020;21.378;2023-12-20T03:56:06;106.50;;;24.98;;
63112;SDS011;49206;48.020;21.378;2023-12-20T03:57:09;149.15;;;27.27;;
63112;SDS011;49206;48.020;21.378;2023-12-20T03:58:11;84.07;;;23.38;;
63112;SDS011;49206;48.020;21.378;2023-12-20T03:59:13;84.25;;;26.23;;
63112;SDS011;49206;48.020;21.378;2023-12-20T04:00:16;102.93;;;27.30;;
63112;SDS011;49206;48.020;21.378;2023-12-20T04:01:19;95.63;;;27.88;;
63112;SDS011;49206;48.020;21.378;2023-12-20T04:02:22;128.88;;;25.42;;
63112;SDS011;49206;48.020;21.378;2023-12-20T04:03:24;148.65;;;28.05;;
63112;SDS011;49206;48.020;21.378;2023-12-20T04:04:27;106.78;;;26.85;;
63112;SDS011;49206;48.020;21.378;2023-12-20T04:05:29;136.73;;;29.38;;
63112;SDS011;49206;48.020;21.378;2023-12-20T04:06:32;107.10;;;26.70;;
63112;SDS011;49206;48.020;21.378;2023-12-20T04:07:35;107.18;;;24.75;;
63112;SDS011;49206;48.020;21.378;2023-12-20T04:08:51;94.32;;;24.95;;
63112;SDS011;49206;48.020;21.378;2023-12-20T04:09:54;129.25;;;26.45;;
63112;SDS011;49206;48.020;21.378;2023-12-20T04:10:57;73.28;;;25.73;;
63112;SDS011;49206;48.020;21.378;2023-12-20T04:11:59;111.95;;;25.40;;
63112;SDS011;49206;48.020;21.378;2023-12-20T04:13:02;104.80;;;26.33;;
63112;SDS011;49206;48.020;21.378;2023-12-20T04:14:05;95.78;;;27.50;;
63112;SDS011;49206;48.020;21.378;2023-12-20T04:15:09;106.43;;;25.50;;
63112;SDS011;49206;48.020;21.378;2023-12-20T04:16:19;71.80;;;24.73;;
63112;SDS011;49206;48.020;21.378;2023-12-20T04:17:25;69.10;;;25.42;;
63112;SDS011;49206;48.020;21.378;2023-12-20T04:18:27;115.40;;;24.10;;
63112;SDS011;49206;48.020;21.378;2023-12-20T04:19:37;105.18;;;25.40;;
63112;SDS011;49206;48.020;21.378;2023-12-20T04:20:39;93.93;;;25.90;;
63112;SDS011;49206;48.020;21.378;2023-12-20T04:21:42;75.05;;;24.10;;
63112;SDS011;49206;48.020;21.378;2023-12-20T04:22:46;71.65;;;25.58;;
63112;SDS011;49206;48.020;21.378;2023-12-20T04:23:51;92.07;;;26.80;;
63112;SDS011;49206;48.020;21.378;2023-12-20T04:24:57;108.88;;;24.83;;
63112;SDS011;49206;48.020;21.378;2023-12-20T04:26:05;127.82;;;26.75;;
63112;SDS011;49206;48.020;21.378;2023-12-20T04:27:10;78.35;;;24.90;;
63112;SDS011;49206;48.020;21.378;2023-12-20T04:28:17;77.97;;;24.00;;
63112;SDS011;49206;48.020;21.378;2023-12-20T04:29:23;115.85;;;24.98;;
63112;SDS011;49206;48.020;21.378;2023-12-20T04:30:26;97.50;;;23.50;;
63112;SDS011;49206;48.020;21.378;2023-12-20T04:31:32;98.13;;;24.63;;
63112;SDS011;49206;48.020;21.378;2023-12-20T04:32:36;69.05;;;24.27;;
63112;SDS011;49206;48.020;21.378;2023-12-20T04:33:46;120.25;;;24.77;;
63112;SDS011;49206;48.020;21.378;2023-12-20T04:34:58;110.15;;;23.08;;
63112;SDS011;49206;48.020;21.378;2023-12-20T04:36:01;143.95;;;26.83;;
63112;SDS011;49206;48.020;21.378;2023-12-20T04:37:03;75.78;;;24.90;;
63112;SDS011;49206;48.020;21.378;2023-12-20T04:38:11;101.90;;;27.17;;
63112;SDS011;49206;48.020;21.378;2023-12-20T04:39:19;98.70;;;24.60;;
63112;SDS011;49206;48.020;21.378;2023-12-20T04:40:28;131.95;;;25.73;;
63112;SDS011;49206;48.020;21.378;2023-12-20T04:41:35;96.07;;;23.50;;
63112;SDS011;49206;48.020;21.378;2023-12-20T04:42:39;101.50;;;22.65;;
63112;SDS011;49206;48.020;21.378;2023-12-20T04:43:51;98.40;;;24.77;;
63112;SDS011;49206;48.020;21.378;2023-12-20T04:45:11;73.55;;;22.10;;
63112;SDS011;49206;48.020;21.378;2023-12-20T04:46:16;87.72;;;22.27;;
63112;SDS011;49206;48.020;21.378;2023-12-20T04:47:21;95.00;;;22.45;;
63112;SDS011;49206;48.020;21.378;2023-12-20T04:48:26;109.25;;;23.30;;
63112;SDS011;49206;48.020;21.378;2023-12-20T04:49:30;101.32;;;22.63;;
63112;SDS011;49206;48.020;21.378;2023-12-20T04:50:33;121.38;;;23.15;;
63112;SDS011;49206;48.020;21.378;2023-12-20T04:51:38;118.88;;;23.50;;
63112;SDS011;49206;48.020;21.378;2023-12-20T04:52:40;123.50;;;24.38;;
63112;SDS011;49206;48.020;21.378;2023-12-20T04:53:43;76.45;;;23.48;;
63112;SDS011;49206;48.020;21.378;2023-12-20T04:54:46;76.78;;;24.17;;
63112;SDS011;49206;48.020;21.378;2023-12-20T04:55:49;78.55;;;24.42;;
63112;SDS011;49206;48.020;21.378;2023-12-20T04:56:51;82.97;;;24.15;;
63112;SDS011;49206;48.020;21.378;2023-12-20T04:57:59;123.90;;;22.98;;
63112;SDS011;49206;48.020;21.378;2023-12-20T04:59:09;122.88;;;23.85;;
63112;SDS011;49206;48.020;21.378;2023-12-20T05:00:22;119.05;;;25.20;;
63112;SDS011;49206;48.020;21.378;2023-12-20T05:01:38;112.30;;;24.50;;
63112;SDS011;49206;48.020;21.378;2023-12-20T05:02:41;80.18;;;24.35;;
63112;SDS011;49206;48.020;21.378;2023-12-20T05:03:45;67.75;;;23.52;;
63112;SDS011;49206;48.020;21.378;2023-12-20T05:04:47;82.05;;;25.52;;
63112;SDS011;49206;48.020;21.378;2023-12-20T05:05:55;99.47;;;24.70;;
63112;SDS011;49206;48.020;21.378;2023-12-20T05:07:02;103.85;;;24.48;;
63112;SDS011;49206;48.020;21.378;2023-12-20T05:08:08;72.93;;;24.13;;
63112;SDS011;49206;48.020;21.378;2023-12-20T05:09:13;138.43;;;27.90;;
63112;SDS011;49206;48.020;21.378;2023-12-20T05:10:26;142.18;;;27.10;;
63112;SDS011;49206;48.020;21.378;2023-12-20T05:11:36;81.95;;;24.27;;
63112;SDS011;49206;48.020;21.378;2023-12-20T05:12:38;102.32;;;25.13;;
63112;SDS011;49206;48.020;21.378;2023-12-20T05:13:48;80.43;;;23.27;;
63112;SDS011;49206;48.020;21.378;2023-12-20T05:14:54;106.40;;;24.73;;
63112;SDS011;49206;48.020;21.378;2023-12-20T05:16:04;132.23;;;26.70;;
63112;SDS011;49206;48.020;21.378;2023-12-20T05:17:26;76.22;;;23.15;;
63112;SDS011;49206;48.020;21.378;2023-12-20T05:18:32;108.18;;;33.38;;
63112;SDS011;49206;48.020;21.378;2023-12-20T05:19:34;180.80;;;54.47;;
63112;SDS011;49206;48.020;21.378;2023-12-20T05:20:43;171.32;;;44.67;;
63112;SDS011;49206;48.020;21.378;2023-12-20T05:21:55;102.00;;;25.13;;
63112;SDS011;49206;48.020;21.378;2023-12-20T05:23:01;92.53;;;26.50;;
63112;SDS011;49206;48.020;21.378;2023-12-20T05:24:04;124.25;;;27.60;;
63112;SDS011;49206;48.020;21.378;2023-12-20T05:25:11;71.72;;;24.67;;
63112;SDS011;49206;48.020;21.378;2023-12-20T05:26:14;88.78;;;25.02;;
63112;SDS011;49206;48.020;21.378;2023-12-20T05:27:16;83.57;;;24.20;;
63112;SDS011;49206;48.020;21.378;2023-12-20T05:28:20;95.47;;;27.90;;
63112;SDS011;49206;48.020;21.378;2023-12-20T05:29:22;76.88;;;26.50;;
63112;SDS011;49206;48.020;21.378;2023-12-20T05:30:25;95.55;;;26.30;;
63112;SDS011;49206;48.020;21.378;2023-12-20T05:31:38;67.40;;;21.48;;
63112;SDS011;49206;48.020;21.378;2023-12-20T05:32:41;107.53;;;26.08;;
63112;SDS011;49206;48.020;21.378;2023-12-20T05:33:44;101.05;;;25.67;;
63112;SDS011;49206;48.020;21.378;2023-12-20T05:34:53;78.20;;;23.85;;
63112;SDS011;49206;48.020;21.378;2023-12-20T05:35:55;68.05;;;24.13;;
63112;SDS011;49206;48.020;21.378;2023-12-20T05:36:58;84.68;;;27.42;;
63112;SDS011;49206;48.020;21.378;2023-12-20T05:38:01;99.78;;;25.65;;
63112;SDS011;49206;48.020;21.378;2023-12-20T05:39:05;87.97;;;25.45;;
63112;SDS011;49206;48.020;21.378;2023-12-20T05:40:09;95.53;;;23.33;;
63112;SDS011;49206;48.020;21.378;2023-12-20T05:41:21;99.20;;;25.52;;
63112;SDS011;49206;48.020;21.378;2023-12-20T05:42:23;100.65;;;24.30;;
63112;SDS011;49206;48.020;21.378;2023-12-20T05:43:27;110.45;;;26.02;;
63112;SDS011;49206;48.020;21.378;2023-12-20T05:44:29;83.32;;;23.10;;
63112;SDS011;49206;48.020;21.378;2023-12-20T05:45:32;97.03;;;23.27;;
63112;SDS011;49206;48.020;21.378;2023-12-20T05:46:37;91.18;;;22.60;;
63112;SDS011;49206;48.020;21.378;2023-12-20T05:47:39;70.30;;;23.50;;
63112;SDS011;49206;48.020;21.378;2023-12-20T05:48:58;70.85;;;21.65;;
63112;SDS011;49206;48.020;21.378;2023-12-20T05:50:01;60.42;;;22.45;;
63112;SDS011;49206;48.020;21.378;2023-12-20T05:52:08;52.72;;;17.98;;
63112;SDS011;49206;48.020;21.378;2023-12-20T05:53:11;109.07;;;23.13;;
63112;SDS011;49206;48.020;21.378;2023-12-20T05:54:14;90.50;;;23.98;;
63112;SDS011;49206;48.020;21.378;2023-12-20T05:55:17;69.57;;;22.95;;
63112;SDS011;49206;48.020;21.378;2023-12-20T05:56:19;110.50;;;27.20;;
63112;SDS011;49206;48.020;21.378;2023-12-20T05:57:24;81.25;;;23.48;;
63112;SDS011;49206;48.020;21.378;2023-12-20T05:58:29;77.60;;;26.95;;
63112;SDS011;49206;48.020;21.378;2023-12-20T05:59:33;84.63;;;26.83;;
63112;SDS011;49206;48.020;21.378;2023-12-20T06:00:36;90.55;;;24.13;;
63112;SDS011;49206;48.020;21.378;2023-12-20T06:01:43;91.65;;;25.02;;
63112;SDS011;49206;48.020;21.378;2023-12-20T06:02:46;83.35;;;24.60;;
63112;SDS011;49206;48.020;21.378;2023-12-20T06:03:52;89.05;;;26.15;;
63112;SDS011;49206;48.020;21.378;2023-12-20T06:04:55;87.10;;;25.95;;
63112;SDS011;49206;48.020;21.378;2023-12-20T06:05:58;119.15;;;26.77;;
63112;SDS011;49206;48.020;21.378;2023-12-20T06:07:16;82.88;;;26.73;;
63112;SDS011;49206;48.020;21.378;2023-12-20T06:08:33;100.05;;;25.92;;
63112;SDS011;49206;48.020;21.378;2023-12-20T06:09:36;89.80;;;26.65;;
63112;SDS011;49206;48.020;21.378;2023-12-20T06:10:39;89.00;;;27.50;;
63112;SDS011;49206;48.020;21.378;2023-12-20T06:11:46;77.63;;;27.08;;
63112;SDS011;49206;48.020;21.378;2023-12-20T06:12:48;74.80;;;24.85;;
63112;SDS011;49206;48.020;21.378;2023-12-20T06:13:53;76.13;;;23.77;;
63112;SDS011;49206;48.020;21.378;2023-12-20T06:14:56;106.82;;;27.38;;
63112;SDS011;49206;48.020;21.378;2023-12-20T06:16:00;97.50;;;26.58;;
63112;SDS011;49206;48.020;21.378;2023-12-20T06:17:03;94.55;;;25.55;;
63112;SDS011;49206;48.020;21.378;2023-12-20T06:18:06;126.22;;;27.00;;